createdAt,value
2023-04-07T00:02:44.519Z,100475.78
2023-04-07T00:07:55.884Z,100483.97
2023-04-07T00:12:59.431Z,100495.78
2023-04-07T00:18:03.674Z,100493.84
2023-04-07T00:23:06.414Z,100498.09
2023-04-07T00:28:09.169Z,100494.88
2023-04-07T00:33:13.362Z,100488.31
2023-04-07T00:38:16.206Z,100488.16
2023-04-07T00:43:19.747Z,100489.06
2023-04-07T00:48:23.998Z,100479.63
2023-04-07T00:53:26.711Z,100476.25
2023-04-07T00:58:29.538Z,100487.06
2023-04-07T01:03:38.139Z,100480.44
2023-04-07T01:08:48.208Z,100486.81
2023-04-07T01:13:52.987Z,100485.75
2023-04-07T01:19:15.401Z,100493.38
2023-04-07T01:24:43.694Z,100497.97
2023-04-07T01:29:50.484Z,100506.56
2023-04-07T01:34:53.969Z,100523.88
2023-04-07T01:39:56.984Z,100518.41
2023-04-07T01:45:02.107Z,100536.88
2023-04-07T01:50:05.553Z,100556.03
2023-04-07T01:55:09.782Z,100566.00
2023-04-07T02:00:19.551Z,100576.22
2023-04-07T02:05:27.340Z,100577.94
2023-04-07T02:10:32.203Z,100589.41
2023-04-07T02:15:38.304Z,100606.84
2023-04-07T02:20:41.244Z,100621.41
2023-04-07T02:25:47.069Z,100629.03
2023-04-07T02:30:51.082Z,100636.31
2023-04-07T02:35:53.752Z,100654.94
2023-04-07T02:40:58.600Z,100660.91
2023-04-07T02:46:03.096Z,100667.22
2023-04-07T02:51:06.484Z,100689.22
2023-04-07T02:56:09.105Z,100699.22
2023-04-07T03:01:13.266Z,100717.81
2023-04-07T03:06:16.107Z,100718.09
2023-04-07T03:11:30.791Z,100730.66
2023-04-07T03:16:37.140Z,100743.38
2023-04-07T03:21:44.083Z,100765.53
2023-04-07T03:26:47.094Z,100781.44
2023-04-07T03:32:10.401Z,100795.53
2023-04-07T03:37:13.868Z,100807.59
2023-04-07T03:42:17.913Z,100814.03
2023-04-07T03:47:22.675Z,100833.47
2023-04-07T03:52:31.085Z,100853.84
2023-04-07T03:57:41.297Z,100869.34
2023-04-07T04:02:45.765Z,100889.91
2023-04-07T04:07:53.986Z,100909.88
2023-04-07T04:13:00.705Z,100927.09
2023-04-07T04:18:04.880Z,100946.56
2023-04-07T04:23:09.280Z,100965.72
2023-04-07T04:28:13.887Z,100987.06
2023-04-07T04:33:18.786Z,101009.06
2023-04-07T04:38:39.471Z,101036.06
2023-04-07T04:44:00.006Z,101057.69
2023-04-07T04:49:04.820Z,101068.28
2023-04-07T04:54:08.060Z,101076.56
2023-04-07T04:59:10.886Z,101068.09
2023-04-07T05:04:31.984Z,101097.09
2023-04-07T05:09:48.428Z,101112.34
2023-04-07T05:14:53.683Z,101135.22
2023-04-07T05:19:57.832Z,101148.41
2023-04-07T05:25:10.930Z,101160.31
2023-04-07T05:30:15.988Z,101176.03
2023-04-07T05:35:20.400Z,101180.81
2023-04-07T05:40:28.701Z,101200.72
2023-04-07T05:45:33.499Z,101224.34
2023-04-07T05:50:38.013Z,101239.69
2023-04-07T05:55:44.406Z,101251.78
2023-04-07T06:00:54.807Z,101270.44
2023-04-07T06:05:59.371Z,101274.56
2023-04-07T06:11:02.783Z,101288.91
2023-04-07T06:16:06.413Z,101305.28
2023-04-07T06:21:10.742Z,101305.53
2023-04-07T06:26:13.927Z,101331.19
2023-04-07T06:31:16.732Z,101324.25
2023-04-07T06:36:21.804Z,101335.97
2023-04-07T06:41:24.577Z,101343.75
2023-04-07T06:46:27.463Z,101348.47
2023-04-07T06:51:33.085Z,101365.47
2023-04-07T06:56:36.128Z,101372.28
2023-04-07T07:01:38.895Z,101383.44
2023-04-07T07:06:42.927Z,101390.88
2023-04-07T07:11:45.986Z,101388.16
2023-04-07T07:16:48.923Z,101407.34
2023-04-07T07:21:53.020Z,101409.06
2023-04-07T07:26:56.720Z,101421.72
2023-04-07T07:31:59.422Z,101433.31
2023-04-07T07:37:03.428Z,101435.94
2023-04-07T07:42:06.202Z,101444.63
2023-04-07T07:47:08.881Z,101492.66
2023-04-07T07:52:12.932Z,101477.53
2023-04-07T07:57:15.693Z,101469.97
2023-04-07T08:02:18.456Z,101477.41
2023-04-07T08:07:22.515Z,101459.88
2023-04-07T08:12:25.247Z,101403.19
2023-04-07T08:17:28.127Z,101402.03
2023-04-07T08:22:32.222Z,101401.44
2023-04-07T08:27:35.068Z,101400.00
2023-04-07T08:32:38.536Z,101403.53
2023-04-07T08:37:44.322Z,101403.94
2023-04-07T08:42:48.940Z,101412.66
2023-04-07T08:47:56.679Z,101420.53
2023-04-07T08:53:01.974Z,101421.53
2023-04-07T08:58:13.135Z,101419.03
2023-04-07T09:03:16.773Z,101424.78
2023-04-07T09:08:20.952Z,101419.78
2023-04-07T09:13:23.716Z,101407.47
2023-04-07T09:18:26.500Z,101394.31
2023-04-07T09:23:35.351Z,101383.78
2023-04-07T09:28:43.007Z,101367.22
2023-04-07T09:33:46.380Z,101351.91
2023-04-07T09:38:50.701Z,101348.06
2023-04-07T09:43:59.011Z,101334.38
2023-04-07T09:49:05.083Z,101324.56
2023-04-07T09:54:10.978Z,101322.72
2023-04-07T09:59:15.330Z,101318.59
2023-04-07T10:04:18.610Z,101314.09
2023-04-07T10:09:24.250Z,101292.56
2023-04-07T10:14:28.358Z,101277.56
2023-04-07T10:19:32.178Z,101267.16
2023-04-07T10:24:48.150Z,101268.25
2023-04-07T10:29:52.586Z,101257.22
2023-04-07T10:35:01.981Z,101256.31
2023-04-07T10:40:31.480Z,101251.38
2023-04-07T10:45:54.311Z,101227.44
2023-04-07T10:51:17.769Z,101222.19
2023-04-07T10:56:21.862Z,101210.38
2023-04-07T11:01:24.641Z,101194.69
2023-04-07T11:06:27.690Z,101188.34
2023-04-07T11:11:39.784Z,101178.91
2023-04-07T11:16:43.844Z,101168.31
2023-04-07T11:21:46.766Z,101163.22
2023-04-07T11:26:50.934Z,101154.78
2023-04-07T11:31:53.829Z,101148.66
2023-04-07T11:36:59.662Z,101126.75
2023-04-07T11:42:03.896Z,101116.59
2023-04-07T11:47:06.733Z,101103.06
2023-04-07T11:52:09.567Z,101094.63
2023-04-07T11:57:14.171Z,101084.09
2023-04-07T12:02:32.169Z,101078.66
2023-04-07T12:07:35.176Z,101069.34
2023-04-07T12:12:39.525Z,101068.28
2023-04-07T12:17:46.569Z,101060.06
2023-04-07T12:22:49.313Z,101058.28
2023-04-07T12:27:53.345Z,101056.84
2023-04-07T12:32:56.136Z,101054.66
2023-04-07T12:37:58.901Z,101042.78
2023-04-07T12:43:03.693Z,101028.31
2023-04-07T12:48:06.732Z,101010.84
2023-04-07T12:53:09.488Z,101018.59
2023-04-07T12:58:13.593Z,101013.88
2023-04-07T13:03:16.873Z,101003.81
2023-04-07T13:08:19.711Z,100995.97
2023-04-07T13:13:23.953Z,100974.81
2023-04-07T13:18:26.746Z,100949.31
2023-04-07T13:23:39.349Z,100933.63
2023-04-07T13:28:47.827Z,100927.41
2023-04-07T13:33:50.862Z,100913.44
2023-04-07T13:38:53.832Z,100914.50
2023-04-07T13:43:58.334Z,100903.59
2023-04-07T13:49:01.061Z,100902.63
2023-04-07T13:54:03.842Z,100890.28
2023-04-07T13:59:08.438Z,100885.53
2023-04-07T14:04:11.311Z,100880.09
2023-04-07T14:09:14.081Z,100880.78
2023-04-07T14:14:18.140Z,100862.38
2023-04-07T14:19:22.191Z,100854.78
2023-04-07T14:24:24.878Z,100856.06
2023-04-07T14:29:28.951Z,100859.63
2023-04-07T14:34:31.801Z,100853.16
2023-04-07T14:39:34.579Z,100852.75
2023-04-07T14:44:38.680Z,100838.91
2023-04-07T14:49:41.450Z,100835.53
2023-04-07T14:54:44.303Z,100831.59
2023-04-07T14:59:48.607Z,100827.59
2023-04-07T15:04:51.498Z,100827.13
2023-04-07T15:09:54.306Z,100832.28
2023-04-07T15:14:58.681Z,100831.72
2023-04-07T15:20:01.527Z,100837.00
2023-04-07T15:25:04.453Z,100826.88
2023-04-07T15:30:09.749Z,100825.22
2023-04-07T15:35:12.770Z,100819.16
2023-04-07T15:40:15.669Z,100815.31
2023-04-07T15:45:19.706Z,100828.31
2023-04-07T15:50:23.210Z,100839.56
2023-04-07T15:55:25.906Z,100845.59
2023-04-07T16:00:30.862Z,100840.66
2023-04-07T16:05:33.584Z,100851.09
2023-04-07T16:10:36.413Z,100842.97
2023-04-07T16:15:41.677Z,100850.16
2023-04-07T16:20:44.619Z,100857.25
2023-04-07T16:25:47.313Z,100856.72
2023-04-07T16:30:51.391Z,100862.34
2023-04-07T16:35:54.140Z,100876.41
2023-04-07T16:41:03.936Z,100882.28
2023-04-07T16:46:08.783Z,100899.38
2023-04-07T16:51:11.519Z,100903.56
2023-04-07T16:56:17.087Z,100912.63
2023-04-07T17:01:21.260Z,100924.06
2023-04-07T17:06:24.028Z,100937.91
2023-04-07T17:11:26.835Z,100942.81
2023-04-07T17:16:30.975Z,100952.25
2023-04-07T17:21:33.657Z,100961.97
2023-04-07T17:26:36.417Z,100977.28
2023-04-07T17:31:40.705Z,100995.38
2023-04-07T17:36:43.689Z,101006.19
2023-04-07T17:41:47.553Z,101021.41
2023-04-07T17:46:51.684Z,101033.09
2023-04-07T17:51:55.501Z,101049.38
2023-04-07T17:56:58.472Z,101060.63
2023-04-07T18:02:08.720Z,101079.34
2023-04-07T18:07:12.869Z,101101.50
2023-04-07T18:12:15.714Z,101109.06
2023-04-07T18:17:19.737Z,101111.88
2023-04-07T18:22:22.428Z,101129.47
2023-04-07T18:27:27.866Z,101129.03
2023-04-07T18:32:31.968Z,101146.97
2023-04-07T18:37:35.139Z,101157.31
2023-04-07T18:42:37.883Z,101169.94
2023-04-07T18:47:42.060Z,101181.53
2023-04-07T18:52:44.772Z,101190.97
2023-04-07T18:57:47.440Z,101211.00
2023-04-07T19:02:51.828Z,101223.75
2023-04-07T19:07:54.626Z,101240.44
2023-04-07T19:12:57.296Z,101263.84
2023-04-07T19:18:02.527Z,101264.72
2023-04-07T19:23:05.315Z,101283.91
2023-04-07T19:28:08.026Z,101290.41
2023-04-07T19:33:12.651Z,101301.75
2023-04-07T19:38:15.680Z,101315.28
2023-04-07T19:43:18.412Z,101321.88
2023-04-07T19:48:22.482Z,101333.56
2023-04-07T19:53:26.202Z,101359.34
2023-04-07T19:58:29.008Z,101369.44
2023-04-07T20:03:33.217Z,101372.03
2023-04-07T20:08:35.978Z,101380.59
2023-04-07T20:13:38.707Z,101381.72
2023-04-07T20:18:42.801Z,101394.97
2023-04-07T20:23:46.407Z,101402.84
2023-04-07T20:28:49.492Z,101417.97
2023-04-07T20:33:53.750Z,101426.66
2023-04-07T20:38:56.511Z,101435.78
2023-04-07T20:43:59.254Z,101440.53
2023-04-07T20:49:03.859Z,101446.19
2023-04-07T20:54:06.615Z,101447.41
2023-04-07T20:59:09.398Z,101464.22
2023-04-07T21:04:13.561Z,101471.19
2023-04-07T21:09:16.278Z,101485.09
2023-04-07T21:14:18.956Z,101481.56
2023-04-07T21:19:23.215Z,101479.75
2023-04-07T21:24:25.975Z,101486.72
2023-04-07T21:29:30.824Z,101494.56
2023-04-07T21:34:34.858Z,101498.88
2023-04-07T21:39:37.633Z,101504.44
2023-04-07T21:44:40.285Z,101516.28
2023-04-07T21:49:44.629Z,101512.69
2023-04-07T21:54:47.520Z,101523.63
2023-04-07T21:59:50.309Z,101527.31
2023-04-07T22:04:54.357Z,101549.13
2023-04-07T22:09:58.317Z,101562.72
2023-04-07T22:15:01.040Z,101565.09
2023-04-07T22:20:05.690Z,101577.63
2023-04-07T22:25:09.139Z,101577.19
2023-04-07T22:30:12.255Z,101597.38
2023-04-07T22:35:16.397Z,101583.72
2023-04-07T22:40:19.078Z,101609.34
2023-04-07T22:45:21.851Z,101634.03
2023-04-07T22:50:25.951Z,101643.34
2023-04-07T22:55:29.554Z,101652.09
2023-04-07T23:00:32.360Z,101672.28
2023-04-07T23:05:36.975Z,101671.72
2023-04-07T23:10:39.690Z,101678.03
2023-04-07T23:15:42.584Z,101666.78
2023-04-07T23:20:52.452Z,101680.59
2023-04-07T23:25:55.391Z,101666.38
2023-04-07T23:30:58.086Z,101657.25
2023-04-07T23:36:02.736Z,101629.19
2023-04-07T23:41:05.514Z,101625.16
2023-04-07T23:46:08.261Z,101610.00
2023-04-07T23:51:12.745Z,101582.13
2023-04-07T23:56:15.544Z,101570.66
